Hlavní strana
METAR-TAF:

METAR-TAF

Letiště :

El Goléa, Alžírsko

zeměpisná šířka: 30-34N, zeměpisná délka: 002-52E, výška: 397 m

Aktuální stav počasí

Zpráva byla vytvořena před 53 minutami, v 04:00 UTC
Bezvětří
Teplota 6°C
Vlhkost vzduchu 45%
Tlak 1022 hPa
Viditelnost 10 km a více
Žádná oblačnost pod 1500 m, nevyskytují se cumulonimby.

METAR: DAUE 250400Z 00000KT CAVOK 06/M05 Q1022

Čas: 05:53 (04:53 UTC)


TAF: chybějící

Stav a předpovědi počasí z více než 4 000 letišť (zprávy METAR a TAF).

Červené a žluté tečky na mapě představují dostupné meteorologické stanice.

Když kurzor umístíte na tečku, zobrazí se název stanice.

Pak kliknutím zobrazíte stav a předpověď počasí.

Chcete-li změnit mapu, kliknutím na zelené tlačítko se znaménkem +mapu přiblížíte, kliknutím na zelené tlačítko se znaménkem – mapu oddálíte a kliknutím na zelené šipky přejdete na sousední mapy.


METAR-TAF: